Time;durP1;ratioP1;P1;durP2;ratioP2;P2;SDS_P1;SDS_P2;PMS_P1;PMS_P2;Temp;Humidity;BMP_temperature;BMP_pressure;BME280_temperature;BME280_humidity;BME280_pressure;Samples;Min_cycle;Max_cycle;Signal;HPM_P1;HPM_P2
2023/01/20 00:01:11;;;;;;;49.15;20.73;;;;;;;;;;5068961;28;20094;-58
2023/01/20 00:03:37;;;;;;;44.10;17.88;;;;;;;;;;5069429;28;20439;-55
2023/01/20 00:06:03;;;;;;;41.40;19.65;;;;;;;;;;5068486;28;20047;-59
2023/01/20 00:08:28;;;;;;;54.05;21.35;;;;;;;;;;5067352;28;20032;-58
2023/01/20 00:10:53;;;;;;;30.73;13.82;;;;;;;;;;5070759;28;20107;-59
2023/01/20 00:13:19;;;;;;;52.13;21.30;;;;;;;;;;5070394;28;20028;-61
2023/01/20 00:15:44;;;;;;;47.20;19.42;;;;;;;;;;5066985;28;20380;-56
2023/01/20 00:18:10;;;;;;;35.83;17.08;;;;;;;;;;5070390;28;20031;-58
2023/01/20 00:20:36;;;;;;;35.58;14.90;;;;;;;;;;5078685;28;20024;-59
2023/01/20 00:23:01;;;;;;;41.50;18.30;;;;;;;;;;5069693;28;20032;-58
2023/01/20 00:25:26;;;;;;;50.90;18.98;;;;;;;;;;5068840;28;20028;-61
2023/01/20 00:27:52;;;;;;;38.75;16.13;;;;;;;;;;5070317;28;20024;-59
2023/01/20 00:30:18;;;;;;;54.70;21.35;;;;;;;;;;5068674;28;20427;-58
2023/01/20 00:32:43;;;;;;;41.83;17.98;;;;;;;;;;5068249;28;20464;-58
2023/01/20 00:35:09;;;;;;;61.83;23.17;;;;;;;;;;5071519;28;20476;-56
2023/01/20 00:37:35;;;;;;;59.88;23.00;;;;;;;;;;5068011;28;20020;-59
2023/01/20 00:40:00;;;;;;;41.70;16.80;;;;;;;;;;5081729;28;20123;-58
2023/01/20 00:42:25;;;;;;;60.10;22.15;;;;;;;;;;5090762;28;20107;-58
2023/01/20 00:44:51;;;;;;;64.70;24.17;;;;;;;;;;5077875;28;20504;-58
2023/01/20 00:47:16;;;;;;;58.53;23.98;;;;;;;;;;5069131;28;20036;-57
2023/01/20 00:49:41;;;;;;;57.60;22.30;;;;;;;;;;5068704;28;20169;-57
2023/01/20 00:52:07;;;;;;;58.50;23.88;;;;;;;;;;5071055;28;20044;-57
2023/01/20 00:54:32;;;;;;;57.10;23.00;;;;;;;;;;5073047;28;20530;-59
2023/01/20 00:56:58;;;;;;;65.93;25.05;;;;;;;;;;5083589;28;20031;-58
2023/01/20 00:59:23;;;;;;;61.15;22.90;;;;;;;;;;5090409;28;20024;-59
2023/01/20 01:01:48;;;;;;;62.58;23.15;;;;;;;;;;5074463;28;20077;-59
2023/01/20 01:04:14;;;;;;;52.25;21.42;;;;;;;;;;5077420;28;20028;-58
2023/01/20 01:06:39;;;;;;;43.10;16.80;;;;;;;;;;5094179;28;20109;-58
2023/01/20 01:09:05;;;;;;;52.83;20.63;;;;;;;;;;5078163;28;20149;-61
2023/01/20 01:11:30;;;;;;;51.10;22.77;;;;;;;;;;5086932;28;20028;-61
2023/01/20 01:13:56;;;;;;;56.90;22.02;;;;;;;;;;5073936;28;20380;-58
2023/01/20 01:16:22;;;;;;;46.17;18.20;;;;;;;;;;5072823;28;20090;-60
2023/01/20 01:18:47;;;;;;;41.58;18.38;;;;;;;;;;5071527;28;20041;-59
2023/01/20 01:21:15;;;;;;;47.25;16.25;;;;;;;;;;5064065;28;20412;-57
2023/01/20 01:23:42;;;;;;;33.92;14.98;;;;;;;;;;5071754;28;20032;-55
2023/01/20 01:26:09;;;;;;;42.88;18.73;;;;;;;;;;5072040;28;20140;-59
2023/01/20 01:28:34;;;;;;;47.05;18.13;;;;;;;;;;5089286;28;20032;-58
2023/01/20 01:31:01;;;;;;;40.83;16.42;;;;;;;;;;5073762;28;20354;-58
2023/01/20 01:33:27;;;;;;;50.33;20.88;;;;;;;;;;5091030;28;20036;-61
2023/01/20 01:36:01;;;;;;;56.05;20.85;;;;;;;;;;5070521;28;20094;-58
2023/01/20 01:38:27;;;;;;;54.53;21.52;;;;;;;;;;5070918;28;20043;-60
2023/01/20 01:40:54;;;;;;;61.40;23.63;;;;;;;;;;5072395;28;20040;-57
2023/01/20 01:43:25;;;;;;;57.10;21.55;;;;;;;;;;5073180;28;20029;-57
2023/01/20 01:45:51;;;;;;;49.08;19.83;;;;;;;;;;5073049;28;20044;-59
2023/01/20 01:48:21;;;;;;;34.67;13.27;;;;;;;;;;5087006;28;20107;-57
2023/01/20 01:50:54;;;;;;;66.43;25.35;;;;;;;;;;5070768;28;20035;-59
2023/01/20 01:53:20;;;;;;;56.65;20.25;;;;;;;;;;5072075;28;20036;-59
2023/01/20 01:55:52;;;;;;;63.65;20.92;;;;;;;;;;5069813;28;20093;-59
2023/01/20 01:58:23;;;;;;;72.07;26.45;;;;;;;;;;5073610;28;20039;-55
2023/01/20 02:00:49;;;;;;;66.45;25.52;;;;;;;;;;5066365;28;20265;-58
2023/01/20 02:03:14;;;;;;;77.13;26.40;;;;;;;;;;5071722;28;20380;-59
2023/01/20 02:05:42;;;;;;;69.00;25.23;;;;;;;;;;5081919;28;20077;-57
2023/01/20 02:08:08;;;;;;;51.72;19.65;;;;;;;;;;5071980;28;20036;-60
2023/01/20 02:10:33;;;;;;;58.85;22.90;;;;;;;;;;5069778;28;20029;-59
2023/01/20 02:12:59;;;;;;;69.45;24.90;;;;;;;;;;5072463;28;20181;-55
2023/01/20 02:15:31;;;;;;;76.63;26.83;;;;;;;;;;5083171;28;20039;-58
2023/01/20 02:18:12;;;;;;;58.88;20.52;;;;;;;;;;5072877;28;20029;-57
2023/01/20 02:21:02;;;;;;;62.67;23.27;;;;;;;;;;5067642;28;20304;-58
2023/01/20 02:23:39;;;;;;;54.28;20.80;;;;;;;;;;5070365;28;20036;-61
2023/01/20 02:26:26;;;;;;;50.95;19.20;;;;;;;;;;5071398;28;20032;-59
2023/01/20 02:29:07;;;;;;;54.22;21.10;;;;;;;;;;5069656;28;20032;-57
2023/01/20 02:32:06;;;;;;;55.42;20.90;;;;;;;;;;5069284;28;20051;-60
2023/01/20 02:34:53;;;;;;;51.63;20.63;;;;;;;;;;5060464;28;20024;-61
2023/01/20 02:37:24;;;;;;;62.10;20.55;;;;;;;;;;5070567;28;20381;-57
2023/01/20 02:40:07;;;;;;;52.00;20.88;;;;;;;;;;5091652;28;20036;-58
2023/01/20 02:42:41;;;;;;;50.30;20.73;;;;;;;;;;5092309;28;20028;-60
2023/01/20 02:45:24;;;;;;;48.47;18.40;;;;;;;;;;5075473;28;20469;-59
2023/01/20 02:48:07;;;;;;;52.75;20.42;;;;;;;;;;5080321;28;20115;-60
2023/01/20 02:51:01;;;;;;;47.60;19.05;;;;;;;;;;5058084;28;20477;-61
2023/01/20 02:53:37;;;;;;;38.67;16.25;;;;;;;;;;5071719;28;20120;-58
2023/01/20 02:56:03;;;;;;;43.72;16.98;;;;;;;;;;5068132;28;20032;-58
2023/01/20 02:58:38;;;;;;;51.80;21.27;;;;;;;;;;5072529;28;20089;-61
2023/01/20 03:01:11;;;;;;;61.80;20.52;;;;;;;;;;5073414;28;20044;-58
2023/01/20 03:03:40;;;;;;;49.83;21.20;;;;;;;;;;5071930;28;20054;-58
2023/01/20 03:06:12;;;;;;;56.90;21.75;;;;;;;;;;5070813;28;20481;-57
2023/01/20 03:08:39;;;;;;;49.03;20.20;;;;;;;;;;5069939;28;20112;-59
2023/01/20 03:11:07;;;;;;;54.55;19.52;;;;;;;;;;5068457;28;20036;-59
2023/01/20 03:14:10;;;;;;;52.88;19.35;;;;;;;;;;5067372;28;20465;-61
2023/01/20 03:16:37;;;;;;;44.22;18.17;;;;;;;;;;5008702;28;20125;-59
2023/01/20 03:19:03;;;;;;;47.92;19.27;;;;;;;;;;5058686;28;20049;-59
2023/01/20 03:21:28;;;;;;;55.10;21.90;;;;;;;;;;5078141;28;20039;-59
2023/01/20 03:23:59;;;;;;;61.53;20.23;;;;;;;;;;5068651;28;20076;-58
2023/01/20 03:26:25;;;;;;;48.47;18.08;;;;;;;;;;5069068;28;20051;-57
2023/01/20 03:28:51;;;;;;;60.72;21.67;;;;;;;;;;5071274;28;20496;-58
2023/01/20 03:31:36;;;;;;;61.97;22.38;;;;;;;;;;5070024;28;20024;-57
2023/01/20 03:34:09;;;;;;;55.88;21.52;;;;;;;;;;5071339;28;20252;-58
2023/01/20 03:36:36;;;;;;;59.33;21.45;;;;;;;;;;5081325;28;20032;-60
2023/01/20 03:39:02;;;;;;;56.67;22.33;;;;;;;;;;5081175;28;20032;-56
2023/01/20 03:41:49;;;;;;;57.30;23.38;;;;;;;;;;5070122;28;20397;-59
2023/01/20 03:44:41;;;;;;;58.08;22.05;;;;;;;;;;5072127;28;20071;-57
2023/01/20 03:47:35;;;;;;;63.10;23.38;;;;;;;;;;5066157;28;20040;-60
2023/01/20 03:50:11;;;;;;;50.20;19.30;;;;;;;;;;5053957;28;20040;-58
2023/01/20 03:52:52;;;;;;;60.08;22.73;;;;;;;;;;5069200;28;20024;-59
2023/01/20 03:55:21;;;;;;;;;;;;;;;;;;5070964;28;20024;-57
2023/01/20 03:58:11;;;;;;;59.55;21.48;;;;;;;;;;5068506;28;19923;-59
2023/01/20 04:00:40;;;;;;;58.58;19.10;;;;;;;;;;5034152;28;20055;-58
2023/01/20 04:03:10;;;;;;;64.72;21.60;;;;;;;;;;5073352;28;20032;-60
2023/01/20 04:05:51;;;;;;;72.63;23.13;;;;;;;;;;5036520;28;20573;-58
2023/01/20 04:08:20;;;;;;;57.80;21.08;;;;;;;;;;5066620;28;20107;-58
2023/01/20 04:10:47;;;;;;;65.88;22.63;;;;;;;;;;5069760;28;20036;-58
2023/01/20 04:13:14;;;;;;;54.22;20.30;;;;;;;;;;5061730;28;20404;-59
2023/01/20 04:15:44;;;;;;;59.35;21.02;;;;;;;;;;5066111;28;20036;-59
2023/01/20 04:18:21;;;;;;;61.85;22.35;;;;;;;;;;5069025;28;20112;-57
2023/01/20 04:20:51;;;;;;;45.80;16.23;;;;;;;;;;5069381;28;20035;-58
2023/01/20 04:23:35;;;;;;;65.80;24.00;;;;;;;;;;5066967;28;20090;-57
2023/01/20 04:26:01;;;;;;;49.90;18.02;;;;;;;;;;5067904;28;20122;-61
2023/01/20 04:28:26;;;;;;;38.55;15.68;;;;;;;;;;5069011;28;20029;-59
2023/01/20 04:30:52;;;;;;;55.88;21.83;;;;;;;;;;5069382;28;20032;-57
2023/01/20 04:33:17;;;;;;;62.20;23.17;;;;;;;;;;5070746;28;20028;-58
2023/01/20 04:35:43;;;;;;;55.10;20.30;;;;;;;;;;5067815;28;20035;-60
2023/01/20 04:38:08;;;;;;;56.80;20.63;;;;;;;;;;5079653;28;20397;-58
2023/01/20 04:40:34;;;;;;;55.60;19.92;;;;;;;;;;5069821;28;20389;-58
2023/01/20 04:42:59;;;;;;;65.13;21.20;;;;;;;;;;5063214;28;20037;-57
2023/01/20 04:45:24;;;;;;;65.85;21.90;;;;;;;;;;5069760;28;20025;-59
2023/01/20 04:47:50;;;;;;;64.82;23.85;;;;;;;;;;5068417;28;20032;-59
2023/01/20 04:50:16;;;;;;;72.65;24.08;;;;;;;;;;5070456;28;20032;-57
2023/01/20 04:52:42;;;;;;;62.75;20.30;;;;;;;;;;5068988;28;20024;-57
2023/01/20 04:55:07;;;;;;;63.63;22.50;;;;;;;;;;5072586;28;20081;-59
2023/01/20 04:57:33;;;;;;;62.33;20.75;;;;;;;;;;5069844;28;20037;-59
2023/01/20 04:59:58;;;;;;;63.80;23.95;;;;;;;;;;5066032;28;20045;-58
2023/01/20 05:02:24;;;;;;;59.20;21.80;;;;;;;;;;5069811;28;20037;-58
2023/01/20 05:04:49;;;;;;;38.53;15.32;;;;;;;;;;5068084;28;20035;-58
2023/01/20 05:07:15;;;;;;;62.33;22.20;;;;;;;;;;5069541;28;20479;-58
2023/01/20 05:09:40;;;;;;;63.60;23.42;;;;;;;;;;5064142;28;20086;-61
2023/01/20 05:12:05;;;;;;;67.20;22.90;;;;;;;;;;5067260;28;20046;-58
2023/01/20 05:14:31;;;;;;;44.45;15.23;;;;;;;;;;5065573;28;20031;-58
2023/01/20 05:16:56;;;;;;;62.53;22.70;;;;;;;;;;5069379;28;20651;-57
2023/01/20 05:19:22;;;;;;;61.75;22.02;;;;;;;;;;5073491;28;20036;-57
2023/01/20 05:21:47;;;;;;;58.15;21.40;;;;;;;;;;5068761;28;20040;-58
2023/01/20 05:24:12;;;;;;;60.88;20.67;;;;;;;;;;5066160;28;20042;-57
2023/01/20 05:26:38;;;;;;;62.33;23.48;;;;;;;;;;5060777;28;20032;-60
2023/01/20 05:29:03;;;;;;;54.65;20.10;;;;;;;;;;5067995;28;20032;-59
2023/01/20 05:31:29;;;;;;;59.35;21.15;;;;;;;;;;5066980;28;20059;-57
2023/01/20 05:33:55;;;;;;;61.67;21.98;;;;;;;;;;5067202;28;20024;-58
2023/01/20 05:36:20;;;;;;;50.35;20.13;;;;;;;;;;5068068;28;20366;-58
2023/01/20 05:38:46;;;;;;;55.72;20.58;;;;;;;;;;5071797;28;20377;-58
2023/01/20 05:41:11;;;;;;;55.33;21.13;;;;;;;;;;5072446;28;20469;-59
2023/01/20 05:43:37;;;;;;;54.50;20.52;;;;;;;;;;5067482;28;20134;-58
2023/01/20 05:46:03;;;;;;;69.38;25.85;;;;;;;;;;5068687;28;20036;-60
2023/01/20 05:48:28;;;;;;;51.78;19.33;;;;;;;;;;5082629;28;20502;-57
2023/01/20 05:50:53;;;;;;;48.20;19.02;;;;;;;;;;5076751;28;20143;-59
2023/01/20 05:53:19;;;;;;;48.30;19.27;;;;;;;;;;5073016;28;20028;-56
2023/01/20 05:55:44;;;;;;;40.55;16.65;;;;;;;;;;5071464;28;20441;-59
2023/01/20 05:58:10;;;;;;;40.33;15.52;;;;;;;;;;5070536;28;20038;-59
2023/01/20 06:00:35;;;;;;;43.78;17.25;;;;;;;;;;5071850;28;20349;-59
2023/01/20 06:03:02;;;;;;;41.95;17.48;;;;;;;;;;5072232;28;20584;-58
2023/01/20 06:05:27;;;;;;;39.22;16.58;;;;;;;;;;5074182;28;20021;-58
2023/01/20 06:07:56;;;;;;;39.72;15.93;;;;;;;;;;5076391;28;20028;-59
2023/01/20 06:10:28;;;;;;;43.50;16.02;;;;;;;;;;5092777;28;20461;-58
2023/01/20 06:12:55;;;;;;;39.65;14.57;;;;;;;;;;5088384;28;20115;-58
2023/01/20 06:15:22;;;;;;;35.40;14.38;;;;;;;;;;5073512;28;20222;-59
2023/01/20 06:17:48;;;;;;;35.40;13.57;;;;;;;;;;5071892;28;20404;-59
2023/01/20 06:20:14;;;;;;;33.65;14.93;;;;;;;;;;5069882;28;20033;-54
2023/01/20 06:22:39;;;;;;;31.10;13.60;;;;;;;;;;5065149;28;20078;-56
2023/01/20 06:25:05;;;;;;;28.88;13.27;;;;;;;;;;5089518;28;20032;-59
2023/01/20 06:27:30;;;;;;;30.10;12.13;;;;;;;;;;5076675;28;20433;-59
2023/01/20 06:29:56;;;;;;;36.88;13.63;;;;;;;;;;5064750;28;20440;-61
2023/01/20 06:32:21;;;;;;;32.83;11.73;;;;;;;;;;5078691;28;20043;-61
2023/01/20 06:34:46;;;;;;;31.10;12.07;;;;;;;;;;5071253;28;20044;-61
2023/01/20 06:37:12;;;;;;;27.40;11.23;;;;;;;;;;5073263;28;20040;-60
2023/01/20 06:39:39;;;;;;;27.85;11.93;;;;;;;;;;5073158;28;20103;-60
2023/01/20 06:42:05;;;;;;;27.23;12.15;;;;;;;;;;5072361;28;20024;-61
2023/01/20 06:44:32;;;;;;;25.85;11.48;;;;;;;;;;5072159;28;20353;-61
2023/01/20 06:47:03;;;;;;;34.75;13.40;;;;;;;;;;5069162;28;20797;-61
2023/01/20 06:49:29;;;;;;;32.13;13.43;;;;;;;;;;5056922;28;20035;-61
2023/01/20 06:51:55;;;;;;;28.75;12.55;;;;;;;;;;5071222;28;20385;-59
2023/01/20 06:54:20;;;;;;;31.98;13.48;;;;;;;;;;5072983;28;20085;-61
2023/01/20 06:56:45;;;;;;;34.17;13.48;;;;;;;;;;5066470;28;20094;-62
2023/01/20 06:59:11;;;;;;;34.80;13.05;;;;;;;;;;5071409;28;20043;-62
2023/01/20 07:01:37;;;;;;;33.58;15.38;;;;;;;;;;5071775;28;20078;-62
2023/01/20 07:04:03;;;;;;;31.05;13.65;;;;;;;;;;5052133;28;20032;-62
2023/01/20 07:06:37;;;;;;;30.25;13.93;;;;;;;;;;5083054;28;20204;-57
2023/01/20 07:09:04;;;;;;;29.30;13.25;;;;;;;;;;5078143;28;20080;-61
2023/01/20 07:11:30;;;;;;;39.28;15.82;;;;;;;;;;5071473;28;20036;-59
2023/01/20 07:13:56;;;;;;;35.03;15.15;;;;;;;;;;5059017;28;20036;-60
2023/01/20 07:16:21;;;;;;;39.90;15.52;;;;;;;;;;5082213;28;20389;-61
2023/01/20 07:18:48;;;;;;;32.03;14.40;;;;;;;;;;5091711;28;20032;-62
2023/01/20 07:21:14;;;;;;;34.35;14.18;;;;;;;;;;5073508;28;20103;-58
2023/01/20 07:23:39;;;;;;;37.25;14.50;;;;;;;;;;5070647;28;20426;-61
2023/01/20 07:26:07;;;;;;;39.45;15.60;;;;;;;;;;5080938;28;20931;-61
2023/01/20 07:28:33;;;;;;;38.83;15.68;;;;;;;;;;5074168;28;20489;-61
2023/01/20 07:31:03;;;;;;;41.17;16.75;;;;;;;;;;5077391;28;20032;-61
2023/01/20 07:33:29;;;;;;;32.45;14.50;;;;;;;;;;5092251;28;20047;-61
2023/01/20 07:35:54;;;;;;;35.65;16.13;;;;;;;;;;5081588;28;20041;-61
2023/01/20 07:38:20;;;;;;;32.03;13.95;;;;;;;;;;5070612;28;20123;-61
2023/01/20 07:40:45;;;;;;;25.10;10.82;;;;;;;;;;5068927;28;20544;-63
2023/01/20 07:43:10;;;;;;;29.23;13.35;;;;;;;;;;5074327;28;20028;-57
2023/01/20 07:45:36;;;;;;;32.58;13.82;;;;;;;;;;5090885;28;20035;-61
2023/01/20 07:48:02;;;;;;;28.63;12.88;;;;;;;;;;5085557;28;20059;-61
2023/01/20 07:50:28;;;;;;;27.55;11.45;;;;;;;;;;5071778;28;20032;-61
2023/01/20 07:52:54;;;;;;;26.80;12.82;;;;;;;;;;5066865;28;20101;-61
2023/01/20 07:55:20;;;;;;;32.70;12.07;;;;;;;;;;5092178;28;20032;-61
2023/01/20 07:57:45;;;;;;;30.95;12.90;;;;;;;;;;5074334;28;20029;-62
2023/01/20 08:00:11;;;;;;;27.70;12.40;;;;;;;;;;5069721;28;20094;-61
2023/01/20 08:02:37;;;;;;;24.60;11.60;;;;;;;;;;5075857;28;20032;-61
2023/01/20 08:05:03;;;;;;;25.60;11.65;;;;;;;;;;5086945;28;20078;-61
2023/01/20 08:07:28;;;;;;;26.85;11.57;;;;;;;;;;5062588;28;20035;-61
2023/01/20 08:09:54;;;;;;;24.73;10.75;;;;;;;;;;5069437;28;20028;-61
2023/01/20 08:12:19;;;;;;;26.27;12.68;;;;;;;;;;5070962;28;20469;-61
2023/01/20 08:14:45;;;;;;;29.70;11.98;;;;;;;;;;5085849;28;20040;-62
2023/01/20 08:17:10;;;;;;;27.88;12.52;;;;;;;;;;5067551;28;20047;-61
2023/01/20 08:19:35;;;;;;;19.83;10.60;;;;;;;;;;5065481;28;20039;-60
2023/01/20 08:22:01;;;;;;;25.58;11.40;;;;;;;;;;5052431;28;20119;-59
2023/01/20 08:24:26;;;;;;;25.33;10.60;;;;;;;;;;5069402;28;20024;-61
2023/01/20 08:26:52;;;;;;;26.48;10.80;;;;;;;;;;5070111;28;20028;-59
2023/01/20 08:29:17;;;;;;;25.40;11.95;;;;;;;;;;5071535;28;20078;-60
2023/01/20 08:31:43;;;;;;;25.67;10.98;;;;;;;;;;5053207;28;20377;-61
2023/01/20 08:34:08;;;;;;;25.85;11.32;;;;;;;;;;5070862;28;20071;-61
2023/01/20 08:36:35;;;;;;;25.05;11.20;;;;;;;;;;5080178;28;20021;-60
2023/01/20 08:39:04;;;;;;;26.63;11.82;;;;;;;;;;5066154;28;20373;-61
2023/01/20 08:41:35;;;;;;;27.20;12.73;;;;;;;;;;5057187;28;20398;-60
2023/01/20 08:44:03;;;;;;;24.67;11.10;;;;;;;;;;5052010;28;20040;-54
2023/01/20 08:46:29;;;;;;;25.40;11.23;;;;;;;;;;5087582;28;20040;-61
2023/01/20 08:48:55;;;;;;;22.52;10.60;;;;;;;;;;5089394;28;20039;-61
2023/01/20 08:51:24;;;;;;;24.52;11.15;;;;;;;;;;5072541;28;20424;-56
2023/01/20 08:53:50;;;;;;;24.55;11.57;;;;;;;;;;5070853;28;20121;-60
2023/01/20 08:56:16;;;;;;;23.30;10.50;;;;;;;;;;5083423;28;20071;-56
2023/01/20 08:58:41;;;;;;;21.00;10.05;;;;;;;;;;5072212;28;20020;-61
2023/01/20 09:01:12;;;;;;;21.90;9.98;;;;;;;;;;5069775;28;20045;-60
2023/01/20 09:03:38;;;;;;;18.20;9.68;;;;;;;;;;5071202;28;20029;-59
2023/01/20 09:06:05;;;;;;;20.40;10.32;;;;;;;;;;5071455;28;20286;-57
2023/01/20 09:08:31;;;;;;;18.38;9.18;;;;;;;;;;5069660;28;20127;-59
2023/01/20 09:11:26;;;;;;;21.08;10.40;;;;;;;;;;5071425;28;20477;-60
2023/01/20 09:13:52;;;;;;;18.77;9.77;;;;;;;;;;5044659;28;20045;-62
2023/01/20 09:16:18;;;;;;;20.10;10.00;;;;;;;;;;5061710;28;20035;-62
2023/01/20 09:18:43;;;;;;;20.60;10.68;;;;;;;;;;5073910;28;20408;-62
2023/01/20 09:21:10;;;;;;;24.38;11.40;;;;;;;;;;5078251;28;20057;-61
2023/01/20 09:23:37;;;;;;;21.23;10.95;;;;;;;;;;5071019;28;20035;-61
2023/01/20 09:26:05;;;;;;;20.67;10.65;;;;;;;;;;5074116;28;20032;-57
2023/01/20 09:28:30;;;;;;;23.33;10.70;;;;;;;;;;5054987;28;20032;-60
2023/01/20 09:30:57;;;;;;;27.70;11.95;;;;;;;;;;5064702;28;20035;-61
2023/01/20 09:33:23;;;;;;;21.80;9.18;;;;;;;;;;5087150;28;20032;-58
2023/01/20 09:35:58;;;;;;;25.48;12.20;;;;;;;;;;5074657;28;20032;-62
2023/01/20 09:44:21;;;;;;;25.38;11.52;;;;;;;;;;5092266;28;20237;-61
2023/01/20 09:47:18;;;;;;;34.47;14.20;;;;;;;;;;5094579;28;20071;-62
2023/01/20 09:53:04;;;;;;;25.63;10.82;;;;;;;;;;5068615;28;20043;-61
2023/01/20 09:55:49;;;;;;;23.08;12.10;;;;;;;;;;5094828;28;20028;-61
2023/01/20 09:58:43;;;;;;;12.23;6.93;;;;;;;;;;5092663;28;20032;-61
2023/01/20 10:01:23;;;;;;;24.45;11.10;;;;;;;;;;5093573;28;20087;-62
2023/01/20 10:04:28;;;;;;;25.27;11.82;;;;;;;;;;5072560;28;20102;-62
2023/01/20 10:07:06;;;;;;;25.27;11.57;;;;;;;;;;5068597;28;20033;-61
2023/01/20 10:09:44;;;;;;;23.70;12.38;;;;;;;;;;5054546;28;20033;-61
2023/01/20 10:12:17;;;;;;;25.15;12.18;;;;;;;;;;5074456;28;20031;-61
2023/01/20 10:15:16;;;;;;;21.67;11.80;;;;;;;;;;5087439;28;20498;-59
2023/01/20 10:17:46;;;;;;;24.50;11.98;;;;;;;;;;5075896;28;20032;-61
2023/01/20 10:20:21;;;;;;;22.50;11.83;;;;;;;;;;5062544;28;20043;-61
2023/01/20 10:22:54;;;;;;;24.23;12.10;;;;;;;;;;5075586;28;20077;-61
2023/01/20 10:25:30;;;;;;;18.83;9.32;;;;;;;;;;5092869;28;20020;-61
2023/01/20 10:28:05;;;;;;;24.73;11.43;;;;;;;;;;5074739;28;20028;-61
2023/01/20 10:30:35;;;;;;;22.00;10.93;;;;;;;;;;5080255;28;20032;-58
2023/01/20 10:33:12;;;;;;;17.77;7.70;;;;;;;;;;5072595;28;20419;-60
2023/01/20 10:35:47;;;;;;;13.77;6.70;;;;;;;;;;5073276;28;20465;-58
2023/01/20 10:38:46;;;;;;;18.33;8.93;;;;;;;;;;5080421;28;20423;-61
2023/01/20 10:41:29;;;;;;;13.52;6.55;;;;;;;;;;5072132;28;20433;-60
2023/01/20 10:43:56;;;;;;;18.20;8.85;;;;;;;;;;5073458;28;20028;-62
2023/01/20 10:46:43;;;;;;;14.65;6.13;;;;;;;;;;5091510;28;20423;-62
2023/01/20 10:49:19;;;;;;;12.30;6.15;;;;;;;;;;5089843;28;20040;-61
2023/01/20 10:51:45;;;;;;;14.18;6.80;;;;;;;;;;5092727;28;20499;-61
2023/01/20 10:54:28;;;;;;;17.05;8.30;;;;;;;;;;5091393;28;20115;-62
2023/01/20 10:56:55;;;;;;;20.67;9.48;;;;;;;;;;5077084;28;20037;-61
2023/01/20 10:59:33;;;;;;;20.17;9.43;;;;;;;;;;5059893;28;20481;-61
2023/01/20 11:02:12;;;;;;;20.45;10.70;;;;;;;;;;5071927;28;20020;-61
2023/01/20 11:04:38;;;;;;;22.30;10.55;;;;;;;;;;5091602;28;20032;-60
2023/01/20 11:07:07;;;;;;;24.63;11.25;;;;;;;;;;5071134;28;20043;-58
2023/01/20 11:09:36;;;;;;;23.77;12.05;;;;;;;;;;5052283;28;20059;-60
2023/01/20 11:12:05;;;;;;;25.65;12.02;;;;;;;;;;5079901;28;20028;-60
2023/01/20 11:14:31;;;;;;;23.35;11.32;;;;;;;;;;5092698;28;20047;-61
2023/01/20 11:17:04;;;;;;;21.70;10.75;;;;;;;;;;5091119;28;20020;-61
2023/01/20 11:19:55;;;;;;;21.25;10.45;;;;;;;;;;5092553;28;20077;-61
2023/01/20 11:22:44;;;;;;;22.80;11.30;;;;;;;;;;5089493;28;20030;-61
2023/01/20 11:25:22;;;;;;;16.50;9.05;;;;;;;;;;5087549;28;20637;-59
2023/01/20 11:27:48;;;;;;;20.38;10.00;;;;;;;;;;5085284;28;20040;-61
2023/01/20 11:30:29;;;;;;;20.60;9.30;;;;;;;;;;5091987;28;20035;-60
2023/01/20 11:33:08;;;;;;;18.60;9.45;;;;;;;;;;5077640;28;20377;-59
2023/01/20 11:35:34;;;;;;;20.95;10.10;;;;;;;;;;5076421;28;20124;-60
2023/01/20 11:38:20;;;;;;;20.63;9.95;;;;;;;;;;5074554;28;20444;-61
2023/01/20 11:40:52;;;;;;;16.92;8.52;;;;;;;;;;5078190;28;20032;-61
2023/01/20 11:43:28;;;;;;;24.05;9.10;;;;;;;;;;5074305;28;20072;-57
2023/01/20 11:46:28;;;;;;;17.10;8.13;;;;;;;;;;5069645;28;20064;-58
2023/01/20 11:49:17;;;;;;;21.05;9.80;;;;;;;;;;5074512;28;20504;-59
2023/01/20 11:51:55;;;;;;;18.70;9.20;;;;;;;;;;5066692;28;20032;-61
2023/01/20 11:54:25;;;;;;;20.75;9.40;;;;;;;;;;5061618;28;20029;-61
2023/01/20 11:56:55;;;;;;;21.90;10.82;;;;;;;;;;5070576;28;20043;-60
2023/01/20 11:59:29;;;;;;;22.92;11.27;;;;;;;;;;5079091;28;20388;-61
2023/01/20 12:02:00;;;;;;;25.63;11.88;;;;;;;;;;5066162;28;20520;-60
2023/01/20 12:04:44;;;;;;;24.50;11.80;;;;;;;;;;5072129;28;20040;-61
2023/01/20 12:07:24;;;;;;;28.17;13.25;;;;;;;;;;5091161;28;20052;-61
2023/01/20 12:09:58;;;;;;;30.80;14.00;;;;;;;;;;5068821;28;20788;-62
2023/01/20 12:12:28;;;;;;;31.13;13.55;;;;;;;;;;5082241;28;20119;-60
2023/01/20 12:15:04;;;;;;;26.88;13.18;;;;;;;;;;5090952;28;20043;-59
2023/01/20 12:17:38;;;;;;;27.38;12.38;;;;;;;;;;5078885;28;20390;-62
2023/01/20 12:20:15;;;;;;;27.05;12.73;;;;;;;;;;5082059;28;20125;-59
2023/01/20 12:22:48;;;;;;;28.63;13.35;;;;;;;;;;5087321;28;20365;-56
2023/01/20 12:25:18;;;;;;;27.15;12.63;;;;;;;;;;5091342;28;20024;-59
2023/01/20 12:27:47;;;;;;;29.00;12.37;;;;;;;;;;5063417;28;20499;-60
2023/01/20 12:30:38;;;;;;;30.98;13.30;;;;;;;;;;5050645;28;20025;-60
2023/01/20 12:33:10;;;;;;;25.25;11.88;;;;;;;;;;5089927;28;20043;-58
2023/01/20 12:35:45;;;;;;;25.73;12.27;;;;;;;;;;5077151;28;20570;-58
2023/01/20 12:38:18;;;;;;;25.23;11.95;;;;;;;;;;5070346;28;20393;-60
2023/01/20 12:40:53;;;;;;;25.15;11.90;;;;;;;;;;5069825;28;20492;-60
2023/01/20 12:43:22;;;;;;;22.88;10.75;;;;;;;;;;5074437;28;20029;-60
2023/01/20 12:46:13;;;;;;;25.95;10.68;;;;;;;;;;5062335;28;20085;-61
2023/01/20 12:49:04;;;;;;;24.55;10.95;;;;;;;;;;5070844;28;20052;-56
2023/01/20 12:51:48;;;;;;;25.13;11.52;;;;;;;;;;5090269;28;20027;-59
2023/01/20 12:54:22;;;;;;;30.88;12.38;;;;;;;;;;5077081;28;20495;-57
2023/01/20 12:57:20;;;;;;;21.23;10.10;;;;;;;;;;5094708;28;20039;-61
2023/01/20 13:00:33;;;;;;;23.40;10.35;;;;;;;;;;5090717;28;20117;-61
2023/01/20 13:03:11;;;;;;;21.88;9.93;;;;;;;;;;5027226;28;20051;-59
2023/01/20 13:05:59;;;;;;;23.35;10.60;;;;;;;;;;5084672;28;20465;-59
2023/01/20 13:09:11;;;;;;;20.33;9.15;;;;;;;;;;5095673;28;20100;-58
2023/01/20 13:11:58;;;;;;;19.58;9.23;;;;;;;;;;5068955;28;20075;-60
2023/01/20 13:14:30;;;;;;;24.95;10.10;;;;;;;;;;5073675;28;20578;-59
2023/01/20 13:17:08;;;;;;;18.08;8.90;;;;;;;;;;5080256;28;20398;-60
2023/01/20 13:19:40;;;;;;;19.58;9.18;;;;;;;;;;5081298;28;20039;-60
2023/01/20 13:22:14;;;;;;;15.27;7.80;;;;;;;;;;5077941;28;20028;-59
2023/01/20 13:24:43;;;;;;;17.13;8.40;;;;;;;;;;5074369;28;20032;-59
2023/01/20 13:27:10;;;;;;;14.63;7.75;;;;;;;;;;5084648;28;20152;-60
2023/01/20 13:29:36;;;;;;;15.40;7.70;;;;;;;;;;5060869;28;20057;-60
2023/01/20 13:32:02;;;;;;;15.90;8.07;;;;;;;;;;5074030;28;20452;-60
2023/01/20 13:34:29;;;;;;;15.88;8.18;;;;;;;;;;5093436;28;20062;-58
2023/01/20 13:37:01;;;;;;;15.40;8.02;;;;;;;;;;5072849;28;20396;-60
2023/01/20 13:39:31;;;;;;;14.20;7.63;;;;;;;;;;5071981;28;20484;-59
2023/01/20 13:41:57;;;;;;;13.88;7.68;;;;;;;;;;5078281;28;20492;-59
2023/01/20 13:44:36;;;;;;;16.55;7.90;;;;;;;;;;5076150;28;20032;-58
2023/01/20 13:47:07;;;;;;;14.65;7.78;;;;;;;;;;5083642;28;20028;-61
2023/01/20 13:49:49;;;;;;;16.75;8.40;;;;;;;;;;5072737;28;20021;-58
2023/01/20 13:53:00;;;;;;;17.58;7.72;;;;;;;;;;5072963;28;20044;-59
2023/01/20 13:55:44;;;;;;;14.23;8.20;;;;;;;;;;5074027;28;20028;-59
2023/01/20 13:58:18;;;;;;;16.48;8.15;;;;;;;;;;5070652;28;20097;-60
2023/01/20 14:00:45;;;;;;;14.95;8.48;;;;;;;;;;5072069;28;20048;-60
2023/01/20 14:03:36;;;;;;;14.43;7.43;;;;;;;;;;5072155;28;20691;-58
2023/01/20 14:06:04;;;;;;;;;;;;;;;;;;5059186;28;20028;-58
2023/01/20 14:08:41;;;;;;;16.88;7.85;;;;;;;;;;5057199;28;19974;-58
2023/01/20 14:11:11;;;;;;;13.73;6.82;;;;;;;;;;5071697;28;20024;-59
2023/01/20 14:13:36;;;;;;;14.57;7.75;;;;;;;;;;5072586;28;20119;-59
2023/01/20 14:16:02;;;;;;;14.98;7.43;;;;;;;;;;5071992;28;20461;-57
2023/01/20 14:18:29;;;;;;;12.30;6.45;;;;;;;;;;5073872;28;20053;-60
2023/01/20 14:21:11;;;;;;;11.68;5.88;;;;;;;;;;5072948;28;20107;-61
2023/01/20 14:23:37;;;;;;;13.05;7.22;;;;;;;;;;5073447;28;20142;-58
2023/01/20 14:26:12;;;;;;;14.35;7.15;;;;;;;;;;5072191;28;20507;-61
2023/01/20 14:29:15;;;;;;;14.05;6.90;;;;;;;;;;5070231;28;20032;-60
2023/01/20 14:31:41;;;;;;;15.18;7.65;;;;;;;;;;5062105;28;20083;-60
2023/01/20 14:34:28;;;;;;;14.65;7.65;;;;;;;;;;5071815;28;20033;-60
2023/01/20 14:36:56;;;;;;;19.23;8.75;;;;;;;;;;5069878;28;20032;-62
2023/01/20 14:39:27;;;;;;;17.63;8.68;;;;;;;;;;5072067;28;20028;-59
2023/01/20 14:41:55;;;;;;;14.70;8.07;;;;;;;;;;5073018;28;20028;-60
2023/01/20 14:44:23;;;;;;;15.05;7.85;;;;;;;;;;5083173;28;20043;-60
2023/01/20 14:46:52;;;;;;;16.35;8.40;;;;;;;;;;5062991;28;20033;-60
2023/01/20 14:49:20;;;;;;;15.63;8.02;;;;;;;;;;5087283;28;20043;-59
2023/01/20 14:51:47;;;;;;;13.13;7.50;;;;;;;;;;5092663;28;20036;-58
2023/01/20 14:54:41;;;;;;;12.07;7.07;;;;;;;;;;5085819;28;20873;-60